createdAt,value
2018-09-10T00:01:11.088Z,5.17
2018-09-10T00:03:16.018Z,2.30
2018-09-10T00:05:20.787Z,2.40
2018-09-10T00:07:25.512Z,2.43
2018-09-10T00:09:30.255Z,3.17
2018-09-10T00:11:35.009Z,3.73
2018-09-10T00:13:39.782Z,5.77
2018-09-10T00:15:45.192Z,2.60
2018-09-10T00:17:50.339Z,2.00
2018-09-10T00:19:55.273Z,2.80
2018-09-10T00:21:59.977Z,1.70
2018-09-10T00:24:04.652Z,1.97
2018-09-10T00:26:09.348Z,3.30
2018-09-10T00:28:14.098Z,2.90
2018-09-10T00:30:18.868Z,8.40
2018-09-10T00:32:23.652Z,1.70
2018-09-10T00:34:28.410Z,2.70
2018-09-10T00:36:33.183Z,2.80
2018-09-10T00:38:38.007Z,3.20
2018-09-10T00:40:42.776Z,1.30
2018-09-10T00:42:47.570Z,1.97
2018-09-10T00:44:52.317Z,5.60
2018-09-10T00:46:57.159Z,3.53
2018-09-10T00:49:02.097Z,3.93
2018-09-10T00:51:06.842Z,1.60
2018-09-10T00:53:11.588Z,4.47
2018-09-10T00:55:16.334Z,1.77
2018-09-10T00:57:21.101Z,3.10
2018-09-10T00:59:25.824Z,2.17
2018-09-10T01:01:30.469Z,4.03
2018-09-10T01:03:35.249Z,3.47
2018-09-10T01:05:39.998Z,2.17
2018-09-10T01:07:44.691Z,4.00
2018-09-10T01:09:49.540Z,3.13
2018-09-10T01:11:54.311Z,1.80
2018-09-10T01:13:59.011Z,2.40
2018-09-10T01:16:03.750Z,6.63
2018-09-10T01:18:08.441Z,2.17
2018-09-10T01:20:13.190Z,3.93
2018-09-10T01:22:17.966Z,1.30
2018-09-10T01:24:22.653Z,7.20
2018-09-10T01:26:27.353Z,2.13
2018-09-10T01:28:32.393Z,1.40
2018-09-10T01:30:37.219Z,1.67
2018-09-10T01:32:41.941Z,2.30
2018-09-10T01:34:51.782Z,1.60
2018-09-10T01:36:56.709Z,1.13
2018-09-10T01:39:01.407Z,2.63
2018-09-10T01:41:06.250Z,3.60
2018-09-10T01:43:10.982Z,2.00
2018-09-10T01:45:15.747Z,5.80
2018-09-10T01:47:20.666Z,2.70
2018-09-10T01:49:25.284Z,3.10
2018-09-10T01:51:30.027Z,2.10
2018-09-10T01:53:34.902Z,2.03
2018-09-10T01:55:39.538Z,2.57
2018-09-10T01:57:44.232Z,3.37
2018-09-10T01:59:48.927Z,2.00
2018-09-10T02:01:53.625Z,1.80
2018-09-10T02:03:58.295Z,2.50
2018-09-10T02:06:03.108Z,3.20
2018-09-10T02:08:07.752Z,3.33
2018-09-10T02:10:12.361Z,2.03
2018-09-10T02:12:22.192Z,1.67
2018-09-10T02:14:26.874Z,7.93
2018-09-10T02:16:31.502Z,6.17
2018-09-10T02:18:36.194Z,3.17
2018-09-10T02:20:40.846Z,5.47
2018-09-10T02:22:45.555Z,2.40
2018-09-10T02:24:50.252Z,1.90
2018-09-10T02:26:55.020Z,2.07
2018-09-10T02:28:59.871Z,3.47
2018-09-10T02:31:04.937Z,3.60
2018-09-10T02:33:09.666Z,3.87
2018-09-10T02:35:14.375Z,3.00
2018-09-10T02:37:19.109Z,2.40
2018-09-10T02:39:23.751Z,6.47
2018-09-10T02:41:28.483Z,7.70
2018-09-10T02:43:33.134Z,2.77
2018-09-10T02:45:37.727Z,2.10
2018-09-10T02:47:42.440Z,2.87
2018-09-10T02:49:47.148Z,3.73
2018-09-10T02:51:51.985Z,5.23
2018-09-10T02:53:56.624Z,11.03
2018-09-10T02:56:01.302Z,4.00
2018-09-10T02:58:06.219Z,6.20
2018-09-10T03:00:11.933Z,2.03
2018-09-10T03:02:16.665Z,4.53
2018-09-10T03:04:21.298Z,2.37
2018-09-10T03:06:26.063Z,4.37
2018-09-10T03:08:30.868Z,5.60
2018-09-10T03:10:35.588Z,4.87
2018-09-10T03:12:40.193Z,3.87
2018-09-10T03:14:44.855Z,3.00
2018-09-10T03:16:49.521Z,5.73
2018-09-10T03:18:54.228Z,10.93
2018-09-10T03:20:58.929Z,2.90
2018-09-10T03:23:03.586Z,3.37
2018-09-10T03:25:08.345Z,5.20
2018-09-10T03:27:13.047Z,4.33
2018-09-10T03:29:17.739Z,3.03
2018-09-10T03:31:22.426Z,2.87
2018-09-10T03:33:27.147Z,9.60
2018-09-10T03:35:31.835Z,4.20
2018-09-10T03:37:36.674Z,4.80
2018-09-10T03:39:41.384Z,6.93
2018-09-10T03:41:46.156Z,6.20
2018-09-10T03:43:50.798Z,4.30
2018-09-10T03:45:55.420Z,5.10
2018-09-10T03:48:00.114Z,4.70
2018-09-10T03:52:19.018Z,13.60
2018-09-10T03:54:23.726Z,3.67
2018-09-10T03:56:28.657Z,8.73
2018-09-10T03:58:33.378Z,8.93
2018-09-10T04:00:38.103Z,6.20
2018-09-10T04:02:42.742Z,2.17
2018-09-10T04:04:47.444Z,5.07
2018-09-10T04:06:52.899Z,3.10
2018-09-10T04:08:57.653Z,3.10
2018-09-10T04:11:02.431Z,10.70
2018-09-10T04:13:07.359Z,12.53
2018-09-10T04:15:13.387Z,5.53
2018-09-10T04:17:18.313Z,6.03
2018-09-10T04:19:23.047Z,6.90
2018-09-10T04:21:27.775Z,3.77
2018-09-10T04:23:34.401Z,3.80
2018-09-10T04:25:39.170Z,5.00
2018-09-10T04:27:43.814Z,8.00
2018-09-10T04:29:48.588Z,3.10
2018-09-10T04:31:53.338Z,4.80
2018-09-10T04:33:58.177Z,7.00
2018-09-10T04:36:02.975Z,7.20
2018-09-10T04:38:07.689Z,6.23
2018-09-10T04:40:12.449Z,5.70
2018-09-10T04:42:17.359Z,5.23
2018-09-10T04:44:22.191Z,2.90
2018-09-10T04:46:26.954Z,4.10
2018-09-10T04:48:31.660Z,4.70
2018-09-10T04:50:36.352Z,10.63
2018-09-10T04:52:41.110Z,5.23
2018-09-10T04:54:45.824Z,8.73
2018-09-10T04:59:03.822Z,8.70
2018-09-10T05:01:08.622Z,8.00
2018-09-10T05:03:13.399Z,7.23
2018-09-10T05:05:18.261Z,10.40
2018-09-10T05:07:22.993Z,5.87
2018-09-10T05:09:27.770Z,12.50
2018-09-10T05:11:32.653Z,7.57
2018-09-10T05:13:37.761Z,8.30
2018-09-10T05:15:44.136Z,12.17
2018-09-10T05:19:53.951Z,7.93
2018-09-10T05:21:58.698Z,10.20
2018-09-10T05:24:03.399Z,6.63
2018-09-10T05:26:08.251Z,12.17
2018-09-10T05:28:13.404Z,8.77
2018-09-10T05:30:18.165Z,8.80
2018-09-10T05:32:23.007Z,9.87
2018-09-10T05:34:27.936Z,16.67
2018-09-10T05:36:33.364Z,7.20
2018-09-10T05:38:38.171Z,15.23
2018-09-10T05:40:43.025Z,7.33
2018-09-10T05:42:48.619Z,11.93
2018-09-10T05:44:53.409Z,7.90
2018-09-10T05:46:58.211Z,17.23
2018-09-10T05:49:02.909Z,17.23
2018-09-10T05:51:07.686Z,13.67
2018-09-10T05:53:12.442Z,13.77
2018-09-10T05:55:17.079Z,22.60
2018-09-10T05:57:21.871Z,10.43
2018-09-10T05:59:26.521Z,14.30
2018-09-10T06:01:31.175Z,10.07
2018-09-10T06:03:36.052Z,17.50
2018-09-10T06:05:40.903Z,13.40
2018-09-10T06:07:45.681Z,15.00
2018-09-10T06:09:50.631Z,15.70
2018-09-10T06:11:55.480Z,14.23
2018-09-10T06:14:00.252Z,17.23
2018-09-10T06:16:05.247Z,12.47
2018-09-10T06:18:10.007Z,15.20
2018-09-10T06:20:14.772Z,18.53
2018-09-10T06:22:19.809Z,27.23
2018-09-10T06:24:24.681Z,18.87
2018-09-10T06:26:29.516Z,10.63
2018-09-10T06:28:34.345Z,20.63
2018-09-10T06:30:39.066Z,13.30
2018-09-10T06:32:43.735Z,23.73
2018-09-10T06:34:48.445Z,17.43
2018-09-10T06:36:53.146Z,11.97
2018-09-10T06:38:57.833Z,16.13
2018-09-10T06:41:02.618Z,16.63
2018-09-10T06:43:07.595Z,13.70
2018-09-10T06:45:12.466Z,19.63
2018-09-10T06:47:17.221Z,16.70
2018-09-10T06:49:21.945Z,19.77
2018-09-10T06:51:26.678Z,23.60
2018-09-10T06:53:35.041Z,16.03
2018-09-10T06:55:40.033Z,21.20
2018-09-10T06:57:44.805Z,17.63
2018-09-10T06:59:49.567Z,18.03
2018-09-10T07:01:54.465Z,24.60
2018-09-10T07:04:00.003Z,18.20
2018-09-10T07:06:04.759Z,14.50
2018-09-10T07:08:09.849Z,10.00
2018-09-10T07:10:14.756Z,10.47
2018-09-10T07:12:19.443Z,13.43
2018-09-10T07:14:24.984Z,14.80
2018-09-10T07:16:29.730Z,10.37
2018-09-10T07:18:36.224Z,14.50
2018-09-10T07:20:40.958Z,15.90
2018-09-10T07:22:45.689Z,13.23
2018-09-10T07:24:50.455Z,15.70
2018-09-10T07:26:55.110Z,15.07
2018-09-10T07:28:59.945Z,15.37
2018-09-10T07:31:05.012Z,11.97
2018-09-10T07:33:09.827Z,14.87
2018-09-10T07:35:14.651Z,25.23
2018-09-10T07:37:19.360Z,27.87
2018-09-10T07:39:24.289Z,14.30
2018-09-10T07:41:29.226Z,16.53
2018-09-10T07:43:34.086Z,30.57
2018-09-10T07:45:38.832Z,10.97
2018-09-10T07:47:43.741Z,25.07
2018-09-10T07:49:48.798Z,17.97
2018-09-10T07:51:54.036Z,16.53
2018-09-10T07:53:58.778Z,17.93
2018-09-10T07:56:03.630Z,19.50
2018-09-10T07:58:08.485Z,17.40
2018-09-10T08:00:13.202Z,13.00
2018-09-10T08:02:17.951Z,22.87
2018-09-10T08:04:22.781Z,24.87
2018-09-10T08:06:27.596Z,17.50
2018-09-10T08:08:33.446Z,21.17
2018-09-10T08:10:38.183Z,19.30
2018-09-10T08:12:42.887Z,15.90
2018-09-10T08:14:47.853Z,18.23
2018-09-10T08:16:52.614Z,17.83
2018-09-10T08:18:57.550Z,24.97
2018-09-10T08:21:02.282Z,18.40
2018-09-10T08:23:07.008Z,17.83
2018-09-10T08:25:11.943Z,15.40
2018-09-10T08:27:17.059Z,29.87
2018-09-10T08:29:22.114Z,14.03
2018-09-10T08:31:27.155Z,26.23
2018-09-10T08:33:32.015Z,25.70
2018-09-10T08:35:37.275Z,31.13
2018-09-10T08:37:42.033Z,21.30
2018-09-10T08:39:46.678Z,15.23
2018-09-10T08:41:51.518Z,16.43
2018-09-10T08:43:56.918Z,19.50
2018-09-10T08:46:02.601Z,15.30
2018-09-10T08:48:07.907Z,11.80
2018-09-10T08:50:12.639Z,26.57
2018-09-10T08:52:17.799Z,18.17
2018-09-10T08:54:22.691Z,19.53
2018-09-10T08:56:27.258Z,17.63
2018-09-10T08:58:31.943Z,16.10
2018-09-10T09:00:36.700Z,15.50
2018-09-10T09:02:41.579Z,19.60
2018-09-10T09:04:46.365Z,13.33
2018-09-10T09:06:51.277Z,15.37
2018-09-10T09:09:02.519Z,14.47
2018-09-10T09:11:07.443Z,26.23
2018-09-10T09:13:12.222Z,10.40
2018-09-10T09:15:16.966Z,21.30
2018-09-10T09:17:21.868Z,25.23
2018-09-10T09:19:26.666Z,21.50
2018-09-10T09:21:31.526Z,15.67
2018-09-10T09:23:36.394Z,21.87
2018-09-10T09:25:41.089Z,18.20
2018-09-10T09:27:45.796Z,15.93
2018-09-10T09:29:50.622Z,12.67
2018-09-10T09:31:55.329Z,13.53
2018-09-10T09:34:00.690Z,16.40
2018-09-10T09:36:10.445Z,12.53
2018-09-10T09:38:20.320Z,20.10
2018-09-10T09:40:30.076Z,17.20
2018-09-10T09:42:39.869Z,13.00
2018-09-10T09:44:49.802Z,10.40
2018-09-10T09:46:54.559Z,14.17
2018-09-10T09:48:59.321Z,15.83
2018-09-10T09:51:04.389Z,20.17
2018-09-10T09:53:09.136Z,14.70
2018-09-10T09:55:13.890Z,13.60
2018-09-10T09:57:18.565Z,12.77
2018-09-10T09:59:23.395Z,19.87
2018-09-10T10:01:33.347Z,14.13
2018-09-10T10:03:43.139Z,13.33
2018-09-10T10:05:48.017Z,11.03
2018-09-10T10:07:52.855Z,12.37
2018-09-10T10:09:57.606Z,7.30
2018-09-10T10:12:02.397Z,9.30
2018-09-10T10:14:08.013Z,17.27
2018-09-10T10:16:12.725Z,9.90
2018-09-10T10:18:17.391Z,6.73
2018-09-10T10:20:22.068Z,14.13
2018-09-10T10:22:26.844Z,15.40
2018-09-10T10:24:31.619Z,13.37
2018-09-10T10:26:36.377Z,21.83
2018-09-10T10:28:41.253Z,6.33
2018-09-10T10:30:46.186Z,16.60
2018-09-10T10:32:50.973Z,3.80
2018-09-10T10:34:55.776Z,10.33
2018-09-10T10:37:00.577Z,6.97
2018-09-10T10:39:06.891Z,8.90
2018-09-10T10:41:11.600Z,8.33
2018-09-10T10:43:16.441Z,11.80
2018-09-10T10:45:21.226Z,7.07
2018-09-10T10:47:26.056Z,5.30
2018-09-10T10:49:30.777Z,6.90
2018-09-10T10:51:35.767Z,11.87
2018-09-10T10:53:40.610Z,6.07
2018-09-10T10:55:45.443Z,9.17
2018-09-10T10:57:50.258Z,12.80
2018-09-10T10:59:55.093Z,6.70
2018-09-10T11:01:59.889Z,9.20
2018-09-10T11:04:04.697Z,10.47
2018-09-10T11:06:09.567Z,3.17
2018-09-10T11:08:14.311Z,6.80
2018-09-10T11:10:19.144Z,6.50
2018-09-10T11:12:24.027Z,5.50
2018-09-10T11:14:29.034Z,5.50
2018-09-10T11:16:33.774Z,6.47
2018-09-10T11:18:38.587Z,5.00
2018-09-10T11:20:43.691Z,7.07
2018-09-10T11:22:48.604Z,6.33
2018-09-10T11:24:53.445Z,2.57
2018-09-10T11:26:58.272Z,3.40
2018-09-10T11:29:03.034Z,5.73
2018-09-10T11:31:08.163Z,3.87
2018-09-10T11:33:12.985Z,3.50
2018-09-10T11:35:17.806Z,3.33
2018-09-10T11:37:22.655Z,2.57
2018-09-10T11:39:27.521Z,7.40
2018-09-10T11:41:32.320Z,7.73
2018-09-10T11:43:37.066Z,3.80
2018-09-10T11:45:41.978Z,6.63
2018-09-10T11:47:46.762Z,12.70
2018-09-10T11:49:51.500Z,5.27
2018-09-10T11:51:56.211Z,12.73
2018-09-10T11:54:00.984Z,9.13
2018-09-10T11:56:05.746Z,8.53
2018-09-10T11:58:10.477Z,3.67
2018-09-10T12:00:15.262Z,12.47
2018-09-10T12:02:19.977Z,3.70
2018-09-10T12:04:24.698Z,2.67
2018-09-10T12:06:29.524Z,2.90
2018-09-10T12:08:34.300Z,4.00
2018-09-10T12:10:39.120Z,4.50
2018-09-10T12:12:43.914Z,7.70
2018-09-10T12:14:55.159Z,2.03
2018-09-10T12:16:59.910Z,5.40
2018-09-10T12:19:05.156Z,2.73
2018-09-10T12:21:09.891Z,5.20
2018-09-10T12:23:14.670Z,3.60
2018-09-10T12:25:19.431Z,2.30
2018-09-10T12:27:24.360Z,4.30
2018-09-10T12:29:29.146Z,6.80
2018-09-10T12:31:33.955Z,6.13
2018-09-10T12:33:38.722Z,4.87
2018-09-10T12:35:43.401Z,3.07
2018-09-10T12:37:48.247Z,5.93
2018-09-10T12:39:53.034Z,3.50
2018-09-10T12:41:57.785Z,5.17
2018-09-10T12:44:02.652Z,5.20
2018-09-10T12:46:07.946Z,3.03
2018-09-10T12:48:12.709Z,6.73
2018-09-10T12:50:17.437Z,7.33
2018-09-10T12:52:22.228Z,5.10
2018-09-10T12:54:26.946Z,3.40
2018-09-10T12:56:31.882Z,5.10
2018-09-10T12:58:36.641Z,4.23
2018-09-10T13:00:41.398Z,5.30
2018-09-10T13:02:46.217Z,3.23
2018-09-10T13:04:50.951Z,12.43
2018-09-10T13:06:55.781Z,2.17
2018-09-10T13:09:00.656Z,4.03
2018-09-10T13:11:05.503Z,5.60
2018-09-10T13:13:10.346Z,7.00
2018-09-10T13:15:15.352Z,14.07
2018-09-10T13:17:20.134Z,2.27
2018-09-10T13:19:24.925Z,8.03
2018-09-10T13:21:29.789Z,7.37
2018-09-10T13:23:41.163Z,6.10
2018-09-10T13:25:46.010Z,8.57
2018-09-10T13:27:50.871Z,9.17
2018-09-10T13:29:55.634Z,3.67
2018-09-10T13:32:00.452Z,3.73
2018-09-10T13:34:05.303Z,3.20
2018-09-10T13:36:10.179Z,2.50
2018-09-10T13:38:14.933Z,3.90
2018-09-10T13:40:19.842Z,15.63
2018-09-10T13:44:22.243Z,6.10
2018-09-10T13:46:27.927Z,2.30
2018-09-10T13:48:32.846Z,3.00
2018-09-10T13:50:37.831Z,4.40
2018-09-10T13:52:43.035Z,2.80
2018-09-10T13:54:47.994Z,3.43
2018-09-10T13:56:52.856Z,3.63
2018-09-10T13:58:57.669Z,5.60
2018-09-10T14:01:05.635Z,6.80
2018-09-10T14:03:10.398Z,5.10
2018-09-10T14:05:15.261Z,2.63
2018-09-10T14:07:20.049Z,2.23
2018-09-10T14:09:25.204Z,6.93
2018-09-10T14:11:29.993Z,5.40
2018-09-10T14:13:34.748Z,3.10
2018-09-10T14:15:39.544Z,9.90
2018-09-10T14:17:44.355Z,12.53
2018-09-10T14:19:49.094Z,5.83
2018-09-10T14:21:53.844Z,3.83
2018-09-10T14:23:58.645Z,3.97
2018-09-10T14:26:04.050Z,5.20
2018-09-10T14:28:08.824Z,12.37
2018-09-10T14:30:13.603Z,5.50
2018-09-10T14:32:18.375Z,10.80
2018-09-10T14:34:23.231Z,3.13
2018-09-10T14:36:28.103Z,3.37
2018-09-10T14:38:32.916Z,3.03
2018-09-10T14:40:37.646Z,5.73
2018-09-10T14:42:42.583Z,4.00
2018-09-10T14:44:47.523Z,12.13
2018-09-10T14:46:52.499Z,10.73
2018-09-10T14:48:57.448Z,2.93
2018-09-10T14:51:02.277Z,9.93
2018-09-10T14:53:07.140Z,5.20
2018-09-10T14:55:11.889Z,12.43
2018-09-10T14:57:16.639Z,6.40
2018-09-10T14:59:21.592Z,3.00
2018-09-10T15:01:27.347Z,9.47
2018-09-10T15:03:32.095Z,5.37
2018-09-10T15:05:36.910Z,2.33
2018-09-10T15:07:42.059Z,4.27
2018-09-10T15:09:47.125Z,5.17
2018-09-10T15:11:51.871Z,12.30
2018-09-10T15:13:56.608Z,4.87
2018-09-10T15:16:01.491Z,3.77
2018-09-10T15:18:06.669Z,3.60
2018-09-10T15:20:11.754Z,11.70
2018-09-10T15:22:16.548Z,3.73
2018-09-10T15:24:21.392Z,2.03
2018-09-10T15:26:26.308Z,8.80
2018-09-10T15:28:31.255Z,9.23
2018-09-10T15:30:36.249Z,4.90
2018-09-10T15:32:40.950Z,6.87
2018-09-10T15:34:45.757Z,7.50
2018-09-10T15:36:50.439Z,5.80
2018-09-10T15:38:55.319Z,4.07
2018-09-10T15:41:00.154Z,8.07
2018-09-10T15:43:05.046Z,3.87
2018-09-10T15:45:10.264Z,3.87
2018-09-10T15:47:15.110Z,2.20
2018-09-10T15:49:19.920Z,17.13
2018-09-10T15:51:25.518Z,5.17
2018-09-10T15:53:30.461Z,3.33
2018-09-10T15:55:35.247Z,5.00
2018-09-10T15:57:40.041Z,5.20
2018-09-10T15:59:44.949Z,7.70
2018-09-10T16:01:49.779Z,2.83
2018-09-10T16:03:54.621Z,7.63
2018-09-10T16:05:59.811Z,4.50
2018-09-10T16:08:04.716Z,4.43
2018-09-10T16:10:09.561Z,3.80
2018-09-10T16:12:14.380Z,3.20
2018-09-10T16:14:19.208Z,5.67
2018-09-10T16:16:24.066Z,3.97
2018-09-10T16:18:28.937Z,4.83
2018-09-10T16:20:33.843Z,6.23
2018-09-10T16:22:38.787Z,4.70
2018-09-10T16:24:43.685Z,12.50
2018-09-10T16:26:48.417Z,5.93
2018-09-10T16:28:53.304Z,11.37
2018-09-10T16:30:59.108Z,5.00
2018-09-10T16:33:04.038Z,17.50
2018-09-10T16:35:09.104Z,11.17
2018-09-10T16:37:14.118Z,3.43
2018-09-10T16:39:19.066Z,4.73
2018-09-10T16:41:23.971Z,6.13
2018-09-10T16:43:28.652Z,5.60
2018-09-10T16:45:33.812Z,5.17
2018-09-10T16:47:38.884Z,14.13
2018-09-10T16:49:43.629Z,3.80
2018-09-10T16:51:48.481Z,3.20
2018-09-10T16:53:53.362Z,5.63
2018-09-10T16:55:58.378Z,7.97
2018-09-10T16:58:03.197Z,10.20
2018-09-10T17:00:08.133Z,5.40
2018-09-10T17:02:13.149Z,6.13
2018-09-10T17:04:18.904Z,8.50
2018-09-10T17:06:24.905Z,6.90
2018-09-10T17:08:29.927Z,11.73
2018-09-10T17:10:34.900Z,4.90
2018-09-10T17:14:43.282Z,14.63
2018-09-10T17:16:48.928Z,10.63
2018-09-10T17:18:53.703Z,9.90
2018-09-10T17:21:02.894Z,7.83
2018-09-10T17:23:08.340Z,6.70
2018-09-10T17:25:14.344Z,8.90
2018-09-10T17:27:19.225Z,4.17
2018-09-10T17:29:25.105Z,8.63
2018-09-10T17:31:30.053Z,11.10
2018-09-10T17:33:34.990Z,6.93
2018-09-10T17:35:40.189Z,6.37
2018-09-10T17:37:45.068Z,6.40
2018-09-10T17:39:50.426Z,10.27
2018-09-10T17:41:55.341Z,5.10
2018-09-10T17:44:00.343Z,15.87
2018-09-10T17:46:05.243Z,6.90
2018-09-10T17:48:14.565Z,8.83
2018-09-10T17:50:20.916Z,13.10
2018-09-10T17:52:25.906Z,4.03
2018-09-10T17:54:33.413Z,6.77
2018-09-10T17:56:38.385Z,8.07
2018-09-10T17:58:43.378Z,5.87
2018-09-10T18:00:49.761Z,5.40
2018-09-10T18:02:54.577Z,14.70
2018-09-10T18:04:59.870Z,7.70
2018-09-10T18:07:05.025Z,4.87
2018-09-10T18:09:11.610Z,9.20
2018-09-10T18:11:16.607Z,8.50
2018-09-10T18:13:21.600Z,13.27
2018-09-10T18:15:26.598Z,5.23
2018-09-10T18:17:31.987Z,4.17
2018-09-10T18:19:36.953Z,7.00
2018-09-10T18:21:42.174Z,7.80
2018-09-10T18:23:47.318Z,10.53
2018-09-10T18:25:53.572Z,5.03
2018-09-10T18:28:02.647Z,12.70
2018-09-10T18:30:11.053Z,9.67
2018-09-10T18:32:17.169Z,14.80
2018-09-10T18:34:23.760Z,13.73
2018-09-10T18:36:32.979Z,10.07
2018-09-10T18:38:40.747Z,13.73
2018-09-10T18:40:47.227Z,14.40
2018-09-10T18:42:55.430Z,10.80
2018-09-10T18:45:01.720Z,8.57
2018-09-10T18:47:09.993Z,14.53
2018-09-10T18:49:17.347Z,12.90
2018-09-10T18:51:24.309Z,14.10
2018-09-10T18:53:29.459Z,11.00
2018-09-10T18:55:34.645Z,18.67
2018-09-10T18:57:42.209Z,22.50
2018-09-10T18:59:49.035Z,13.90
2018-09-10T19:01:56.220Z,12.53
2018-09-10T19:04:03.108Z,19.73
2018-09-10T19:06:11.459Z,18.50
2018-09-10T19:08:19.778Z,13.27
2018-09-10T19:10:29.919Z,15.17
2018-09-10T19:12:39.842Z,13.27
2018-09-10T19:14:50.448Z,11.63
2018-09-10T19:16:59.859Z,11.87
2018-09-10T19:19:07.530Z,20.53
2018-09-10T19:21:15.385Z,13.60
2018-09-10T19:23:26.611Z,13.13
2018-09-10T19:25:42.294Z,11.10
2018-09-10T19:27:51.580Z,21.30
2018-09-10T19:30:01.528Z,8.73
2018-09-10T19:32:09.122Z,18.17
2018-09-10T19:34:15.062Z,9.03
2018-09-10T19:36:26.255Z,10.00
2018-09-10T19:38:35.692Z,13.03
2018-09-10T19:40:44.850Z,7.37
2018-09-10T19:42:54.736Z,9.50
2018-09-10T19:45:04.650Z,10.20
2018-09-10T19:47:13.569Z,10.17
2018-09-10T19:49:24.167Z,7.63
2018-09-10T19:51:34.204Z,9.17
2018-09-10T19:53:42.517Z,5.00
2018-09-10T19:55:51.136Z,9.00
2018-09-10T19:58:00.824Z,11.30
2018-09-10T20:00:14.046Z,9.37
2018-09-10T20:02:23.590Z,9.53
2018-09-10T20:04:32.247Z,11.00
2018-09-10T20:06:40.964Z,10.33
2018-09-10T20:08:50.840Z,18.07
2018-09-10T20:10:57.826Z,6.30
2018-09-10T20:13:06.351Z,10.13
2018-09-10T20:15:13.759Z,7.63
2018-09-10T20:17:21.714Z,7.93
2018-09-10T20:19:28.904Z,9.87
2018-09-10T20:21:36.497Z,15.40
2018-09-10T20:23:45.664Z,8.13
2018-09-10T20:25:51.475Z,8.80
2018-09-10T20:28:00.459Z,9.73
2018-09-10T20:30:08.163Z,7.27
2018-09-10T20:32:17.191Z,7.90
2018-09-10T20:34:23.376Z,17.67
2018-09-10T20:36:30.138Z,9.90
2018-09-10T20:38:35.937Z,7.53
2018-09-10T20:40:41.186Z,11.90
2018-09-10T20:42:46.188Z,8.67
2018-09-10T20:44:51.187Z,16.07
2018-09-10T20:46:56.008Z,6.57
2018-09-10T20:49:01.004Z,12.73
2018-09-10T20:51:05.982Z,18.00
2018-09-10T20:53:10.927Z,7.30
2018-09-10T20:55:15.913Z,8.00
2018-09-10T20:57:21.335Z,6.90
2018-09-10T20:59:30.611Z,8.87
2018-09-10T21:01:37.388Z,15.47
2018-09-10T21:03:43.210Z,8.50
2018-09-10T21:05:48.307Z,14.93
2018-09-10T21:07:53.242Z,8.63
2018-09-10T21:09:58.296Z,10.87
2018-09-10T21:12:03.335Z,4.77
2018-09-10T21:14:08.760Z,9.03
2018-09-10T21:16:14.772Z,7.60
2018-09-10T21:18:19.761Z,9.40
2018-09-10T21:20:24.534Z,18.10
2018-09-10T21:22:30.960Z,14.77
2018-09-10T21:24:36.817Z,20.63
2018-09-10T21:26:41.736Z,11.10
2018-09-10T21:28:46.559Z,10.57
2018-09-10T21:30:51.441Z,16.87
2018-09-10T21:32:56.446Z,27.83
2018-09-10T21:35:01.413Z,12.83
2018-09-10T21:37:06.637Z,12.97
2018-09-10T21:39:12.872Z,9.67
2018-09-10T21:41:17.647Z,11.47
2018-09-10T21:43:22.442Z,16.63
2018-09-10T21:45:28.985Z,12.73
2018-09-10T21:47:33.884Z,21.57
2018-09-10T21:49:38.761Z,15.83
2018-09-10T21:51:43.710Z,15.77
2018-09-10T21:53:49.333Z,12.53
2018-09-10T21:55:54.124Z,12.80
2018-09-10T21:57:59.577Z,12.40
2018-09-10T22:00:04.775Z,7.83
2018-09-10T22:02:10.992Z,15.03
2018-09-10T22:04:35.148Z,21.70
2018-09-10T22:06:40.061Z,16.33
2018-09-10T22:08:47.633Z,13.20
2018-09-10T22:10:52.707Z,10.00
2018-09-10T22:12:57.773Z,21.20
2018-09-10T22:15:02.600Z,24.40
2018-09-10T22:17:07.494Z,15.60
2018-09-10T22:19:12.577Z,12.77
2018-09-10T22:21:17.304Z,11.67
2018-09-10T22:23:22.131Z,12.87
2018-09-10T22:25:26.871Z,14.30
2018-09-10T22:27:31.657Z,16.90
2018-09-10T22:29:36.644Z,10.63
2018-09-10T22:31:41.790Z,11.47
2018-09-10T22:33:46.641Z,16.30
2018-09-10T22:35:51.480Z,9.93
2018-09-10T22:37:56.222Z,15.97
2018-09-10T22:40:01.057Z,9.77
2018-09-10T22:42:06.124Z,7.33
2018-09-10T22:44:31.846Z,7.93
2018-09-10T22:46:36.855Z,10.87
2018-09-10T22:48:41.688Z,9.43
2018-09-10T22:50:46.912Z,6.40
2018-09-10T22:52:51.772Z,8.13
2018-09-10T22:54:56.722Z,10.40
2018-09-10T22:57:01.593Z,12.40
2018-09-10T22:59:06.519Z,10.30
2018-09-10T23:01:11.331Z,10.00
2018-09-10T23:03:16.069Z,10.83
2018-09-10T23:05:21.030Z,8.40
2018-09-10T23:07:25.931Z,12.20
2018-09-10T23:09:30.809Z,5.97
2018-09-10T23:11:35.713Z,8.33
2018-09-10T23:13:40.453Z,9.03
2018-09-10T23:15:45.235Z,13.57
2018-09-10T23:17:50.121Z,7.03
2018-09-10T23:19:55.281Z,10.53
2018-09-10T23:22:00.006Z,12.73
2018-09-10T23:24:04.685Z,8.13
2018-09-10T23:26:09.467Z,20.33
2018-09-10T23:28:14.344Z,19.40
2018-09-10T23:30:19.153Z,16.83
2018-09-10T23:32:24.377Z,18.07
2018-09-10T23:34:29.102Z,17.23
2018-09-10T23:36:33.775Z,29.23
2018-09-10T23:38:38.589Z,18.63
2018-09-10T23:40:43.382Z,16.43
2018-09-10T23:42:48.110Z,10.00
2018-09-10T23:44:52.836Z,7.73
2018-09-10T23:46:57.663Z,12.20
2018-09-10T23:49:02.357Z,11.70
2018-09-10T23:51:07.076Z,11.60
2018-09-10T23:53:11.831Z,12.60
2018-09-10T23:55:16.585Z,12.30
2018-09-10T23:57:21.305Z,11.50
2018-09-10T23:59:26.259Z,7.60
